sensor_id;sensor_type;location;lat;lon;timestamp;temperature;humidity
14475;DHT22;7323;50.848;4.334;2022-12-10T00:02:26;1.00;98.60
14475;DHT22;7323;50.848;4.334;2022-12-10T00:04:53;1.00;99.90
14475;DHT22;7323;50.848;4.334;2022-12-10T00:07:21;1.10;99.90
14475;DHT22;7323;50.848;4.334;2022-12-10T00:09:50;1.30;99.90
14475;DHT22;7323;50.848;4.334;2022-12-10T00:12:19;1.40;99.90
14475;DHT22;7323;50.848;4.334;2022-12-10T00:14:48;1.20;99.90
14475;DHT22;7323;50.848;4.334;2022-12-10T00:17:13;1.30;99.90
14475;DHT22;7323;50.848;4.334;2022-12-10T00:19:40;1.30;99.90
14475;DHT22;7323;50.848;4.334;2022-12-10T00:22:09;1.50;98.50
14475;DHT22;7323;50.848;4.334;2022-12-10T00:24:34;1.40;97.10
14475;DHT22;7323;50.848;4.334;2022-12-10T00:27:03;1.50;96.60
14475;DHT22;7323;50.848;4.334;2022-12-10T00:29:32;1.50;95.90
14475;DHT22;7323;50.848;4.334;2022-12-10T00:32:06;1.40;95.20
14475;DHT22;7323;50.848;4.334;2022-12-10T00:34:35;1.20;95.40
14475;DHT22;7323;50.848;4.334;2022-12-10T00:37:00;1.20;96.30
14475;DHT22;7323;50.848;4.334;2022-12-10T00:39:27;1.20;96.70
14475;DHT22;7323;50.848;4.334;2022-12-10T00:41:52;1.30;96.90
14475;DHT22;7323;50.848;4.334;2022-12-10T00:44:18;1.30;96.60
14475;DHT22;7323;50.848;4.334;2022-12-10T00:46:43;1.20;96.70
14475;DHT22;7323;50.848;4.334;2022-12-10T00:49:11;1.20;97.60
14475;DHT22;7323;50.848;4.334;2022-12-10T00:51:37;1.20;97.90
14475;DHT22;7323;50.848;4.334;2022-12-10T00:54:03;1.10;98.70
14475;DHT22;7323;50.848;4.334;2022-12-10T00:56:30;1.00;99.70
14475;DHT22;7323;50.848;4.334;2022-12-10T00:58:58;1.00;99.90
14475;DHT22;7323;50.848;4.334;2022-12-10T01:04:00;1.10;99.10
14475;DHT22;7323;50.848;4.334;2022-12-10T01:06:35;1.10;98.50
14475;DHT22;7323;50.848;4.334;2022-12-10T01:09:04;1.10;98.50
14475;DHT22;7323;50.848;4.334;2022-12-10T01:11:34;1.10;98.60
14475;DHT22;7323;50.848;4.334;2022-12-10T01:14:03;1.10;99.10
14475;DHT22;7323;50.848;4.334;2022-12-10T01:16:29;1.20;99.40
14475;DHT22;7323;50.848;4.334;2022-12-10T01:18:56;1.20;99.40
14475;DHT22;7323;50.848;4.334;2022-12-10T01:21:23;1.20;99.80
14475;DHT22;7323;50.848;4.334;2022-12-10T01:23:50;1.20;99.90
14475;DHT22;7323;50.848;4.334;2022-12-10T01:26:20;1.30;99.90
14475;DHT22;7323;50.848;4.334;2022-12-10T01:28:46;1.40;99.90
14475;DHT22;7323;50.848;4.334;2022-12-10T01:33:40;1.50;99.50
14475;DHT22;7323;50.848;4.334;2022-12-10T01:36:18;1.40;99.30
14475;DHT22;7323;50.848;4.334;2022-12-10T01:38:44;1.20;98.90
14475;DHT22;7323;50.848;4.334;2022-12-10T01:41:25;1.10;99.50
14475;DHT22;7323;50.848;4.334;2022-12-10T01:46:33;1.20;99.90
14475;DHT22;7323;50.848;4.334;2022-12-10T01:49:02;1.40;99.90
14475;DHT22;7323;50.848;4.334;2022-12-10T01:51:32;1.50;99.90
14475;DHT22;7323;50.848;4.334;2022-12-10T01:53:59;1.20;98.40
14475;DHT22;7323;50.848;4.334;2022-12-10T01:56:25;1.10;99.50
14475;DHT22;7323;50.848;4.334;2022-12-10T01:58:53;1.20;99.90
14475;DHT22;7323;50.848;4.334;2022-12-10T02:06:34;1.00;99.10
14475;DHT22;7323;50.848;4.334;2022-12-10T02:14:36;0.90;98.20
14475;DHT22;7323;50.848;4.334;2022-12-10T02:17:18;0.90;99.40
14475;DHT22;7323;50.848;4.334;2022-12-10T02:20:17;0.80;99.10
14475;DHT22;7323;50.848;4.334;2022-12-10T02:22:57;0.80;99.90
14475;DHT22;7323;50.848;4.334;2022-12-10T02:30:40;0.60;99.90
14475;DHT22;7323;50.848;4.334;2022-12-10T02:33:08;0.60;99.90
14475;DHT22;7323;50.848;4.334;2022-12-10T02:35:38;0.60;99.90
14475;DHT22;7323;50.848;4.334;2022-12-10T02:38:22;0.60;99.90
14475;DHT22;7323;50.848;4.334;2022-12-10T02:40:51;0.40;99.90
14475;DHT22;7323;50.848;4.334;2022-12-10T02:43:19;0.30;99.90
14475;DHT22;7323;50.848;4.334;2022-12-10T02:45:47;0.30;99.90
14475;DHT22;7323;50.848;4.334;2022-12-10T02:48:14;0.40;99.90
14475;DHT22;7323;50.848;4.334;2022-12-10T02:50:40;0.50;99.90
14475;DHT22;7323;50.848;4.334;2022-12-10T02:53:06;0.60;99.90
14475;DHT22;7323;50.848;4.334;2022-12-10T02:55:56;0.60;99.90
14475;DHT22;7323;50.848;4.334;2022-12-10T02:58:34;0.70;99.90
14475;DHT22;7323;50.848;4.334;2022-12-10T03:03:56;0.80;99.90
14475;DHT22;7323;50.848;4.334;2022-12-10T03:07:14;0.70;99.90
14475;DHT22;7323;50.848;4.334;2022-12-10T03:09:34;0.60;99.90
14475;DHT22;7323;50.848;4.334;2022-12-10T03:12:08;0.60;99.90
14475;DHT22;7323;50.848;4.334;2022-12-10T03:14:35;0.60;99.90
14475;DHT22;7323;50.848;4.334;2022-12-10T03:17:03;0.60;99.90
14475;DHT22;7323;50.848;4.334;2022-12-10T03:19:36;0.50;99.90
14475;DHT22;7323;50.848;4.334;2022-12-10T03:22:04;0.60;99.90
14475;DHT22;7323;50.848;4.334;2022-12-10T03:24:31;0.80;99.90
14475;DHT22;7323;50.848;4.334;2022-12-10T03:26:58;0.80;99.90
14475;DHT22;7323;50.848;4.334;2022-12-10T03:29:27;0.80;99.90
14475;DHT22;7323;50.848;4.334;2022-12-10T03:31:59;0.90;99.90
14475;DHT22;7323;50.848;4.334;2022-12-10T03:34:25;1.00;99.90
14475;DHT22;7323;50.848;4.334;2022-12-10T03:36:51;1.00;99.90
14475;DHT22;7323;50.848;4.334;2022-12-10T03:39:18;1.00;99.90
14475;DHT22;7323;50.848;4.334;2022-12-10T03:41:43;0.90;99.90
14475;DHT22;7323;50.848;4.334;2022-12-10T03:44:09;0.90;99.90
14475;DHT22;7323;50.848;4.334;2022-12-10T03:46:35;0.80;99.90
14475;DHT22;7323;50.848;4.334;2022-12-10T03:49:01;0.80;99.90
14475;DHT22;7323;50.848;4.334;2022-12-10T03:51:28;1.00;99.90
14475;DHT22;7323;50.848;4.334;2022-12-10T03:53:53;1.00;99.90
14475;DHT22;7323;50.848;4.334;2022-12-10T03:56:20;1.00;99.90
14475;DHT22;7323;50.848;4.334;2022-12-10T03:58:47;1.00;99.90
14475;DHT22;7323;50.848;4.334;2022-12-10T04:01:13;1.10;99.90
14475;DHT22;7323;50.848;4.334;2022-12-10T04:03:40;0.80;99.90
14475;DHT22;7323;50.848;4.334;2022-12-10T04:06:09;0.90;99.90
14475;DHT22;7323;50.848;4.334;2022-12-10T04:08:35;0.80;99.90
14475;DHT22;7323;50.848;4.334;2022-12-10T04:11:09;0.70;99.90
14475;DHT22;7323;50.848;4.334;2022-12-10T04:13:36;0.80;99.90
14475;DHT22;7323;50.848;4.334;2022-12-10T04:16:21;0.80;99.90
14475;DHT22;7323;50.848;4.334;2022-12-10T04:19:00;1.00;99.90
14475;DHT22;7323;50.848;4.334;2022-12-10T04:21:28;1.10;99.90
14475;DHT22;7323;50.848;4.334;2022-12-10T04:24:12;1.10;99.90
14475;DHT22;7323;50.848;4.334;2022-12-10T04:26:59;1.20;99.90
14475;DHT22;7323;50.848;4.334;2022-12-10T04:29:28;1.30;99.90
14475;DHT22;7323;50.848;4.334;2022-12-10T04:31:55;1.20;99.90
14475;DHT22;7323;50.848;4.334;2022-12-10T04:34:21;1.20;99.90
14475;DHT22;7323;50.848;4.334;2022-12-10T04:36:47;1.00;99.90
14475;DHT22;7323;50.848;4.334;2022-12-10T04:39:13;0.90;99.90
14475;DHT22;7323;50.848;4.334;2022-12-10T04:41:44;0.80;99.90
14475;DHT22;7323;50.848;4.334;2022-12-10T04:44:10;0.80;99.90
14475;DHT22;7323;50.848;4.334;2022-12-10T04:46:36;0.60;99.90
14475;DHT22;7323;50.848;4.334;2022-12-10T04:49:03;0.60;99.90
14475;DHT22;7323;50.848;4.334;2022-12-10T04:51:31;0.50;99.90
14475;DHT22;7323;50.848;4.334;2022-12-10T04:53:58;0.40;99.90
14475;DHT22;7323;50.848;4.334;2022-12-10T04:56:23;0.50;99.90
14475;DHT22;7323;50.848;4.334;2022-12-10T04:58:49;0.60;99.90
14475;DHT22;7323;50.848;4.334;2022-12-10T05:01:15;0.60;99.90
14475;DHT22;7323;50.848;4.334;2022-12-10T05:03:42;0.70;99.90
14475;DHT22;7323;50.848;4.334;2022-12-10T05:06:09;0.70;99.90
14475;DHT22;7323;50.848;4.334;2022-12-10T05:08:37;0.50;99.90
14475;DHT22;7323;50.848;4.334;2022-12-10T05:11:22;0.60;99.90
14475;DHT22;7323;50.848;4.334;2022-12-10T05:13:49;0.70;99.90
14475;DHT22;7323;50.848;4.334;2022-12-10T05:16:17;0.50;99.90
14475;DHT22;7323;50.848;4.334;2022-12-10T05:18:43;0.50;99.90
14475;DHT22;7323;50.848;4.334;2022-12-10T05:21:14;0.40;99.90
14475;DHT22;7323;50.848;4.334;2022-12-10T05:23:46;0.40;99.90
14475;DHT22;7323;50.848;4.334;2022-12-10T05:26:19;0.40;99.90
14475;DHT22;7323;50.848;4.334;2022-12-10T05:28:53;0.50;99.90
14475;DHT22;7323;50.848;4.334;2022-12-10T05:31:21;0.40;99.90
14475;DHT22;7323;50.848;4.334;2022-12-10T05:33:47;0.50;99.90
14475;DHT22;7323;50.848;4.334;2022-12-10T05:36:18;0.60;99.90
14475;DHT22;7323;50.848;4.334;2022-12-10T05:38:45;0.60;99.90
14475;DHT22;7323;50.848;4.334;2022-12-10T05:41:23;0.50;99.90
14475;DHT22;7323;50.848;4.334;2022-12-10T05:43:56;0.60;99.90
14475;DHT22;7323;50.848;4.334;2022-12-10T05:46:24;0.60;99.90
14475;DHT22;7323;50.848;4.334;2022-12-10T05:48:53;0.60;99.90
14475;DHT22;7323;50.848;4.334;2022-12-10T05:51:21;0.50;99.90
14475;DHT22;7323;50.848;4.334;2022-12-10T05:53:47;0.30;99.90
14475;DHT22;7323;50.848;4.334;2022-12-10T05:56:16;0.30;99.90
14475;DHT22;7323;50.848;4.334;2022-12-10T05:58:45;0.30;99.90
14475;DHT22;7323;50.848;4.334;2022-12-10T06:01:14;0.40;99.90
14475;DHT22;7323;50.848;4.334;2022-12-10T06:03:41;0.40;99.90
14475;DHT22;7323;50.848;4.334;2022-12-10T06:06:07;0.40;99.90
14475;DHT22;7323;50.848;4.334;2022-12-10T06:08:34;0.50;99.90
14475;DHT22;7323;50.848;4.334;2022-12-10T06:11:10;0.50;99.90
14475;DHT22;7323;50.848;4.334;2022-12-10T06:13:37;0.50;99.90
14475;DHT22;7323;50.848;4.334;2022-12-10T06:16:08;0.60;99.90
14475;DHT22;7323;50.848;4.334;2022-12-10T06:18:34;0.60;99.90
14475;DHT22;7323;50.848;4.334;2022-12-10T06:21:07;0.50;99.90
14475;DHT22;7323;50.848;4.334;2022-12-10T06:23:34;0.50;99.90
14475;DHT22;7323;50.848;4.334;2022-12-10T06:26:16;0.40;99.90
14475;DHT22;7323;50.848;4.334;2022-12-10T06:28:45;0.40;99.90
14475;DHT22;7323;50.848;4.334;2022-12-10T06:31:11;0.50;99.90
14475;DHT22;7323;50.848;4.334;2022-12-10T06:33:38;0.50;99.90
14475;DHT22;7323;50.848;4.334;2022-12-10T06:36:05;0.50;99.90
14475;DHT22;7323;50.848;4.334;2022-12-10T06:38:33;0.40;99.90
14475;DHT22;7323;50.848;4.334;2022-12-10T06:40:59;0.50;99.90
14475;DHT22;7323;50.848;4.334;2022-12-10T06:43:30;0.40;99.90
14475;DHT22;7323;50.848;4.334;2022-12-10T06:45:56;0.30;99.90
14475;DHT22;7323;50.848;4.334;2022-12-10T06:48:22;0.20;99.90
14475;DHT22;7323;50.848;4.334;2022-12-10T06:50:47;0.20;99.90
14475;DHT22;7323;50.848;4.334;2022-12-10T06:53:22;0.20;99.90
14475;DHT22;7323;50.848;4.334;2022-12-10T06:55:48;0.30;99.90
14475;DHT22;7323;50.848;4.334;2022-12-10T06:58:13;0.30;99.90
14475;DHT22;7323;50.848;4.334;2022-12-10T07:00:42;0.30;99.90
14475;DHT22;7323;50.848;4.334;2022-12-10T07:03:08;0.30;99.90
14475;DHT22;7323;50.848;4.334;2022-12-10T07:05:34;0.30;99.90
14475;DHT22;7323;50.848;4.334;2022-12-10T07:07:59;0.20;99.90
14475;DHT22;7323;50.848;4.334;2022-12-10T07:10:25;0.20;99.90
14475;DHT22;7323;50.848;4.334;2022-12-10T07:12:51;0.00;99.90
14475;DHT22;7323;50.848;4.334;2022-12-10T07:15:16;-0.10;99.90
14475;DHT22;7323;50.848;4.334;2022-12-10T07:17:42;0.00;99.90
14475;DHT22;7323;50.848;4.334;2022-12-10T07:20:08;0.00;99.90
14475;DHT22;7323;50.848;4.334;2022-12-10T07:22:35;0.20;99.90
14475;DHT22;7323;50.848;4.334;2022-12-10T07:25:01;0.10;99.90
14475;DHT22;7323;50.848;4.334;2022-12-10T07:27:28;0.20;99.90
14475;DHT22;7323;50.848;4.334;2022-12-10T07:29:56;0.20;99.90
14475;DHT22;7323;50.848;4.334;2022-12-10T07:32:21;0.20;99.90
14475;DHT22;7323;50.848;4.334;2022-12-10T07:34:47;0.20;99.90
14475;DHT22;7323;50.848;4.334;2022-12-10T07:37:14;0.20;99.90
14475;DHT22;7323;50.848;4.334;2022-12-10T07:39:39;0.20;99.90
14475;DHT22;7323;50.848;4.334;2022-12-10T07:42:05;0.00;99.90
14475;DHT22;7323;50.848;4.334;2022-12-10T07:44:34;0.00;99.90
14475;DHT22;7323;50.848;4.334;2022-12-10T07:50:04;-0.10;99.90
14475;DHT22;7323;50.848;4.334;2022-12-10T07:52:31;0.00;99.90
14475;DHT22;7323;50.848;4.334;2022-12-10T07:54:57;0.00;99.90
14475;DHT22;7323;50.848;4.334;2022-12-10T07:57:23;0.20;99.90
14475;DHT22;7323;50.848;4.334;2022-12-10T07:59:49;0.30;99.90
14475;DHT22;7323;50.848;4.334;2022-12-10T08:02:17;0.40;99.90
14475;DHT22;7323;50.848;4.334;2022-12-10T08:04:44;0.30;99.90
14475;DHT22;7323;50.848;4.334;2022-12-10T08:07:12;0.30;99.90
14475;DHT22;7323;50.848;4.334;2022-12-10T08:09:39;0.10;99.90
14475;DHT22;7323;50.848;4.334;2022-12-10T08:12:07;0.00;99.90
14475;DHT22;7323;50.848;4.334;2022-12-10T08:14:32;0.00;99.90
14475;DHT22;7323;50.848;4.334;2022-12-10T08:16:58;0.00;99.90
14475;DHT22;7323;50.848;4.334;2022-12-10T08:19:25;0.00;99.90
14475;DHT22;7323;50.848;4.334;2022-12-10T08:21:52;0.00;99.90
14475;DHT22;7323;50.848;4.334;2022-12-10T08:24:18;0.00;99.90
14475;DHT22;7323;50.848;4.334;2022-12-10T08:26:43;0.00;99.90
14475;DHT22;7323;50.848;4.334;2022-12-10T08:29:10;0.20;99.90
14475;DHT22;7323;50.848;4.334;2022-12-10T08:31:36;0.00;99.90
14475;DHT22;7323;50.848;4.334;2022-12-10T08:34:02;0.10;99.90
14475;DHT22;7323;50.848;4.334;2022-12-10T08:36:28;0.10;99.90
14475;DHT22;7323;50.848;4.334;2022-12-10T08:38:59;0.20;99.90
14475;DHT22;7323;50.848;4.334;2022-12-10T08:41:28;0.20;99.90
14475;DHT22;7323;50.848;4.334;2022-12-10T08:43:56;0.20;99.90
14475;DHT22;7323;50.848;4.334;2022-12-10T08:46:22;0.10;99.90
14475;DHT22;7323;50.848;4.334;2022-12-10T08:48:48;0.20;99.90
14475;DHT22;7323;50.848;4.334;2022-12-10T08:51:16;0.30;99.90
14475;DHT22;7323;50.848;4.334;2022-12-10T08:53:43;0.50;99.90
14475;DHT22;7323;50.848;4.334;2022-12-10T08:56:10;0.40;99.90
14475;DHT22;7323;50.848;4.334;2022-12-10T08:58:38;0.40;99.90
14475;DHT22;7323;50.848;4.334;2022-12-10T09:01:11;0.40;99.90
14475;DHT22;7323;50.848;4.334;2022-12-10T09:03:37;0.30;99.90
14475;DHT22;7323;50.848;4.334;2022-12-10T09:06:07;0.20;99.90
14475;DHT22;7323;50.848;4.334;2022-12-10T09:08:33;0.10;99.90
14475;DHT22;7323;50.848;4.334;2022-12-10T09:11:08;0.10;99.90
14475;DHT22;7323;50.848;4.334;2022-12-10T09:13:34;0.30;99.90
14475;DHT22;7323;50.848;4.334;2022-12-10T09:16:05;0.30;99.90
14475;DHT22;7323;50.848;4.334;2022-12-10T09:18:48;0.30;99.90
14475;DHT22;7323;50.848;4.334;2022-12-10T09:21:17;0.20;99.90
14475;DHT22;7323;50.848;4.334;2022-12-10T09:23:44;0.40;99.90
14475;DHT22;7323;50.848;4.334;2022-12-10T09:26:16;0.20;99.90
14475;DHT22;7323;50.848;4.334;2022-12-10T09:28:49;0.10;99.90
14475;DHT22;7323;50.848;4.334;2022-12-10T09:31:17;0.20;99.90
14475;DHT22;7323;50.848;4.334;2022-12-10T09:33:45;0.30;99.90
14475;DHT22;7323;50.848;4.334;2022-12-10T09:36:12;0.30;99.90
14475;DHT22;7323;50.848;4.334;2022-12-10T09:38:42;0.20;99.90
14475;DHT22;7323;50.848;4.334;2022-12-10T09:46:55;0.30;99.90
14475;DHT22;7323;50.848;4.334;2022-12-10T09:52:21;0.40;99.90
14475;DHT22;7323;50.848;4.334;2022-12-10T09:55:12;0.40;99.90
14475;DHT22;7323;50.848;4.334;2022-12-10T09:57:43;0.50;99.90
14475;DHT22;7323;50.848;4.334;2022-12-10T10:02:47;0.40;99.90
14475;DHT22;7323;50.848;4.334;2022-12-10T10:05:28;0.50;99.90
14475;DHT22;7323;50.848;4.334;2022-12-10T10:08:00;0.50;99.90
14475;DHT22;7323;50.848;4.334;2022-12-10T10:10:32;0.60;99.90
14475;DHT22;7323;50.848;4.334;2022-12-10T10:15:39;0.70;99.90
14475;DHT22;7323;50.848;4.334;2022-12-10T10:18:34;0.70;99.90
14475;DHT22;7323;50.848;4.334;2022-12-10T10:21:04;0.70;99.90
14475;DHT22;7323;50.848;4.334;2022-12-10T10:23:39;0.80;99.90
14475;DHT22;7323;50.848;4.334;2022-12-10T10:26:07;1.00;99.90
14475;DHT22;7323;50.848;4.334;2022-12-10T10:28:46;0.90;99.90
14475;DHT22;7323;50.848;4.334;2022-12-10T10:31:22;0.90;99.90
14475;DHT22;7323;50.848;4.334;2022-12-10T10:34:18;1.00;99.90
14475;DHT22;7323;50.848;4.334;2022-12-10T10:36:44;1.00;99.90
14475;DHT22;7323;50.848;4.334;2022-12-10T10:39:27;1.10;99.90
14475;DHT22;7323;50.848;4.334;2022-12-10T10:41:54;1.20;99.90
14475;DHT22;7323;50.848;4.334;2022-12-10T10:44:24;1.20;99.90
14475;DHT22;7323;50.848;4.334;2022-12-10T10:46:53;1.10;99.90
14475;DHT22;7323;50.848;4.334;2022-12-10T10:49:24;1.00;99.90
14475;DHT22;7323;50.848;4.334;2022-12-10T10:51:51;1.10;99.90
14475;DHT22;7323;50.848;4.334;2022-12-10T10:54:41;1.10;99.90
14475;DHT22;7323;50.848;4.334;2022-12-10T10:57:32;1.10;99.90
14475;DHT22;7323;50.848;4.334;2022-12-10T11:00:19;1.20;99.90
14475;DHT22;7323;50.848;4.334;2022-12-10T11:02:46;1.20;99.90
14475;DHT22;7323;50.848;4.334;2022-12-10T11:05:23;1.10;99.90
14475;DHT22;7323;50.848;4.334;2022-12-10T11:07:57;1.30;99.90
14475;DHT22;7323;50.848;4.334;2022-12-10T11:10:24;1.40;99.90
14475;DHT22;7323;50.848;4.334;2022-12-10T11:15:36;1.30;99.90
14475;DHT22;7323;50.848;4.334;2022-12-10T11:23:30;1.40;99.90
14475;DHT22;7323;50.848;4.334;2022-12-10T11:31:46;1.40;99.90
14475;DHT22;7323;50.848;4.334;2022-12-10T11:34:34;1.50;99.90
14475;DHT22;7323;50.848;4.334;2022-12-10T11:37:13;1.40;99.90
14475;DHT22;7323;50.848;4.334;2022-12-10T11:39:56;1.40;99.90
14475;DHT22;7323;50.848;4.334;2022-12-10T11:42:38;1.50;99.90
14475;DHT22;7323;50.848;4.334;2022-12-10T11:45:44;1.60;99.90
14475;DHT22;7323;50.848;4.334;2022-12-10T11:51:08;1.70;99.90
14475;DHT22;7323;50.848;4.334;2022-12-10T11:56:23;1.60;99.90
14475;DHT22;7323;50.848;4.334;2022-12-10T11:58:58;1.60;99.90
14475;DHT22;7323;50.848;4.334;2022-12-10T12:04:16;1.40;99.90
14475;DHT22;7323;50.848;4.334;2022-12-10T12:06:56;1.40;99.90
14475;DHT22;7323;50.848;4.334;2022-12-10T12:15:04;1.50;99.90
14475;DHT22;7323;50.848;4.334;2022-12-10T12:17:45;1.60;99.90
14475;DHT22;7323;50.848;4.334;2022-12-10T12:26:19;1.70;99.90
14475;DHT22;7323;50.848;4.334;2022-12-10T12:31:39;1.60;99.90
14475;DHT22;7323;50.848;4.334;2022-12-10T12:34:24;1.70;99.90
14475;DHT22;7323;50.848;4.334;2022-12-10T12:36:51;1.60;99.90
14475;DHT22;7323;50.848;4.334;2022-12-10T12:41:54;1.70;99.90
14475;DHT22;7323;50.848;4.334;2022-12-10T12:44:31;1.80;99.90
14475;DHT22;7323;50.848;4.334;2022-12-10T12:47:11;1.90;99.90
14475;DHT22;7323;50.848;4.334;2022-12-10T12:49:42;1.80;99.90
14475;DHT22;7323;50.848;4.334;2022-12-10T12:54:57;1.70;99.90
14475;DHT22;7323;50.848;4.334;2022-12-10T12:57:49;1.70;99.90
14475;DHT22;7323;50.848;4.334;2022-12-10T13:00:19;1.80;99.90
14475;DHT22;7323;50.848;4.334;2022-12-10T13:05:36;2.00;99.90
14475;DHT22;7323;50.848;4.334;2022-12-10T13:13:32;2.10;99.90
14475;DHT22;7323;50.848;4.334;2022-12-10T13:24:47;2.00;99.90
14475;DHT22;7323;50.848;4.334;2022-12-10T13:43:20;2.30;99.90
14475;DHT22;7323;50.848;4.334;2022-12-10T13:46:31;2.40;99.90
14475;DHT22;7323;50.848;4.334;2022-12-10T13:48:59;2.40;99.90
14475;DHT22;7323;50.848;4.334;2022-12-10T13:54:19;2.40;99.90
14475;DHT22;7323;50.848;4.334;2022-12-10T13:57:43;2.50;99.90
14475;DHT22;7323;50.848;4.334;2022-12-10T14:05:27;2.10;99.90
14475;DHT22;7323;50.848;4.334;2022-12-10T14:08:01;2.10;99.90
14475;DHT22;7323;50.848;4.334;2022-12-10T14:10:41;2.20;99.90
14475;DHT22;7323;50.848;4.334;2022-12-10T14:13:10;2.20;99.90
14475;DHT22;7323;50.848;4.334;2022-12-10T14:15:37;2.20;99.90
14475;DHT22;7323;50.848;4.334;2022-12-10T14:18:11;2.20;99.90
14475;DHT22;7323;50.848;4.334;2022-12-10T14:20:43;2.40;99.90
14475;DHT22;7323;50.848;4.334;2022-12-10T14:23:30;2.40;99.90
14475;DHT22;7323;50.848;4.334;2022-12-10T14:28:31;2.30;99.90
14475;DHT22;7323;50.848;4.334;2022-12-10T14:30:59;2.30;99.90
14475;DHT22;7323;50.848;4.334;2022-12-10T14:33:25;2.30;99.90
14475;DHT22;7323;50.848;4.334;2022-12-10T14:35:52;2.40;99.90
14475;DHT22;7323;50.848;4.334;2022-12-10T14:38:29;2.30;99.90
14475;DHT22;7323;50.848;4.334;2022-12-10T14:40:55;2.30;99.90
14475;DHT22;7323;50.848;4.334;2022-12-10T14:43:38;2.30;99.90
14475;DHT22;7323;50.848;4.334;2022-12-10T14:46:06;2.30;99.90
14475;DHT22;7323;50.848;4.334;2022-12-10T14:48:41;2.30;99.90
14475;DHT22;7323;50.848;4.334;2022-12-10T14:51:19;2.30;99.90
14475;DHT22;7323;50.848;4.334;2022-12-10T14:53:45;2.30;99.90
14475;DHT22;7323;50.848;4.334;2022-12-10T14:59:14;2.40;99.90
14475;DHT22;7323;50.848;4.334;2022-12-10T15:01:44;2.40;99.90
14475;DHT22;7323;50.848;4.334;2022-12-10T15:04:15;2.40;99.90
14475;DHT22;7323;50.848;4.334;2022-12-10T15:06:42;2.50;99.90
14475;DHT22;7323;50.848;4.334;2022-12-10T15:09:22;2.60;99.90
14475;DHT22;7323;50.848;4.334;2022-12-10T15:11:54;2.60;99.90
14475;DHT22;7323;50.848;4.334;2022-12-10T15:14:20;2.60;99.90
14475;DHT22;7323;50.848;4.334;2022-12-10T15:16:47;2.50;99.90
14475;DHT22;7323;50.848;4.334;2022-12-10T15:22:15;2.30;99.90
14475;DHT22;7323;50.848;4.334;2022-12-10T15:24:43;2.30;99.90
14475;DHT22;7323;50.848;4.334;2022-12-10T15:27:25;2.40;99.90
14475;DHT22;7323;50.848;4.334;2022-12-10T15:29:52;2.40;99.90
14475;DHT22;7323;50.848;4.334;2022-12-10T15:32:27;2.50;99.90
14475;DHT22;7323;50.848;4.334;2022-12-10T15:35:00;2.40;99.90
14475;DHT22;7323;50.848;4.334;2022-12-10T15:37:39;2.40;99.90
14475;DHT22;7323;50.848;4.334;2022-12-10T15:40:07;2.50;99.90
14475;DHT22;7323;50.848;4.334;2022-12-10T15:42:46;2.40;99.90
14475;DHT22;7323;50.848;4.334;2022-12-10T15:45:36;2.50;99.90
14475;DHT22;7323;50.848;4.334;2022-12-10T15:48:12;2.40;99.90
14475;DHT22;7323;50.848;4.334;2022-12-10T15:50:41;2.50;99.90
14475;DHT22;7323;50.848;4.334;2022-12-10T15:53:11;2.40;99.90
14475;DHT22;7323;50.848;4.334;2022-12-10T15:55:38;2.40;99.90
14475;DHT22;7323;50.848;4.334;2022-12-10T15:58:31;2.40;99.90
14475;DHT22;7323;50.848;4.334;2022-12-10T16:01:02;2.40;99.90
14475;DHT22;7323;50.848;4.334;2022-12-10T16:03:32;2.50;99.90
14475;DHT22;7323;50.848;4.334;2022-12-10T16:05:58;2.50;99.90
14475;DHT22;7323;50.848;4.334;2022-12-10T16:08:28;2.40;99.90
14475;DHT22;7323;50.848;4.334;2022-12-10T16:10:59;2.50;99.90
14475;DHT22;7323;50.848;4.334;2022-12-10T16:13:31;2.70;99.90
14475;DHT22;7323;50.848;4.334;2022-12-10T16:16:01;2.50;99.90
14475;DHT22;7323;50.848;4.334;2022-12-10T16:18:29;2.50;99.90
14475;DHT22;7323;50.848;4.334;2022-12-10T16:20:55;2.60;99.90
14475;DHT22;7323;50.848;4.334;2022-12-10T16:23:21;2.30;99.90
14475;DHT22;7323;50.848;4.334;2022-12-10T16:25:46;2.30;99.90
14475;DHT22;7323;50.848;4.334;2022-12-10T16:28:18;2.20;99.90
14475;DHT22;7323;50.848;4.334;2022-12-10T16:30:50;2.30;99.90
14475;DHT22;7323;50.848;4.334;2022-12-10T16:33:17;2.30;99.90
14475;DHT22;7323;50.848;4.334;2022-12-10T16:35:50;2.30;99.90
14475;DHT22;7323;50.848;4.334;2022-12-10T16:38:17;2.30;99.90
14475;DHT22;7323;50.848;4.334;2022-12-10T16:40:44;2.30;99.90
14475;DHT22;7323;50.848;4.334;2022-12-10T16:43:18;2.30;99.90
14475;DHT22;7323;50.848;4.334;2022-12-10T16:45:44;2.40;99.90
14475;DHT22;7323;50.848;4.334;2022-12-10T16:48:10;2.50;99.90
14475;DHT22;7323;50.848;4.334;2022-12-10T16:50:36;2.50;99.90
14475;DHT22;7323;50.848;4.334;2022-12-10T16:53:18;2.40;99.90
14475;DHT22;7323;50.848;4.334;2022-12-10T16:55:50;2.40;99.90
14475;DHT22;7323;50.848;4.334;2022-12-10T16:58:24;2.40;99.90
14475;DHT22;7323;50.848;4.334;2022-12-10T17:00:51;2.40;99.90
14475;DHT22;7323;50.848;4.334;2022-12-10T17:03:20;2.40;99.90
14475;DHT22;7323;50.848;4.334;2022-12-10T17:06:00;2.30;99.90
14475;DHT22;7323;50.848;4.334;2022-12-10T17:08:28;2.30;99.90
14475;DHT22;7323;50.848;4.334;2022-12-10T17:10:55;2.30;99.90
14475;DHT22;7323;50.848;4.334;2022-12-10T17:13:41;2.30;99.90
14475;DHT22;7323;50.848;4.334;2022-12-10T17:16:14;2.30;99.90
14475;DHT22;7323;50.848;4.334;2022-12-10T17:18:41;2.30;99.90
14475;DHT22;7323;50.848;4.334;2022-12-10T17:21:06;2.20;99.90
14475;DHT22;7323;50.848;4.334;2022-12-10T17:23:35;2.40;99.90
14475;DHT22;7323;50.848;4.334;2022-12-10T17:26:01;2.40;99.90
14475;DHT22;7323;50.848;4.334;2022-12-10T17:28:27;2.30;99.90
14475;DHT22;7323;50.848;4.334;2022-12-10T17:30:52;2.40;99.90
14475;DHT22;7323;50.848;4.334;2022-12-10T17:33:21;2.40;99.90
14475;DHT22;7323;50.848;4.334;2022-12-10T17:35:49;2.40;99.90
14475;DHT22;7323;50.848;4.334;2022-12-10T17:38:24;2.60;99.90
14475;DHT22;7323;50.848;4.334;2022-12-10T17:40:51;2.50;99.90
14475;DHT22;7323;50.848;4.334;2022-12-10T17:43:17;2.60;99.90
14475;DHT22;7323;50.848;4.334;2022-12-10T17:45:44;2.50;99.90
14475;DHT22;7323;50.848;4.334;2022-12-10T17:48:16;2.70;99.90
14475;DHT22;7323;50.848;4.334;2022-12-10T17:50:43;2.60;99.90
14475;DHT22;7323;50.848;4.334;2022-12-10T17:53:10;2.70;99.90
14475;DHT22;7323;50.848;4.334;2022-12-10T17:55:40;2.70;99.90
14475;DHT22;7323;50.848;4.334;2022-12-10T17:58:07;2.70;99.90
14475;DHT22;7323;50.848;4.334;2022-12-10T18:00:35;2.70;99.90
14475;DHT22;7323;50.848;4.334;2022-12-10T18:03:02;2.80;99.90
14475;DHT22;7323;50.848;4.334;2022-12-10T18:05:28;2.80;99.90
14475;DHT22;7323;50.848;4.334;2022-12-10T18:07:53;2.80;99.90
14475;DHT22;7323;50.848;4.334;2022-12-10T18:10:22;2.70;99.90
14475;DHT22;7323;50.848;4.334;2022-12-10T18:12:49;2.80;99.90
14475;DHT22;7323;50.848;4.334;2022-12-10T18:15:20;2.90;99.90
14475;DHT22;7323;50.848;4.334;2022-12-10T18:17:47;2.70;99.90
14475;DHT22;7323;50.848;4.334;2022-12-10T18:20:37;2.70;99.90
14475;DHT22;7323;50.848;4.334;2022-12-10T18:23:06;2.80;99.90
14475;DHT22;7323;50.848;4.334;2022-12-10T18:25:32;2.90;99.90
14475;DHT22;7323;50.848;4.334;2022-12-10T18:28:14;2.80;99.90
14475;DHT22;7323;50.848;4.334;2022-12-10T18:30:53;2.90;99.90
14475;DHT22;7323;50.848;4.334;2022-12-10T18:33:22;2.90;99.90
14475;DHT22;7323;50.848;4.334;2022-12-10T18:35:48;2.90;99.90
14475;DHT22;7323;50.848;4.334;2022-12-10T18:38:15;2.90;99.90
14475;DHT22;7323;50.848;4.334;2022-12-10T18:40:41;2.70;99.90